Time;durP1;ratioP1;P1;durP2;ratioP2;P2;SDS_P1;SDS_P2;PMS_P1;PMS_P2;Temp;Humidity;BMP_temperature;BMP_pressure;BME280_temperature;BME280_humidity;BME280_pressure;Samples;Min_cycle;Max_cycle;Signal;HPM_P1;HPM_P2
2021/12/25 00:01:36;;;;;;;14.87;11.37;;;14.40;66.10;;;;;;5093632;28;20444;-57
2021/12/25 00:04:01;;;;;;;13.03;10.70;;;14.30;65.80;;;;;;5092516;28;20191;-56
2021/12/25 00:06:27;;;;;;;12.13;10.30;;;14.30;65.90;;;;;;5093535;28;20424;-57
2021/12/25 00:08:53;;;;;;;13.30;10.60;;;14.30;65.90;;;;;;5093368;28;20203;-56
2021/12/25 00:11:18;;;;;;;14.73;10.47;;;14.30;66.00;;;;;;5093425;28;20200;-57
2021/12/25 00:13:44;;;;;;;16.03;10.70;;;14.30;66.10;;;;;;5093958;28;20195;-57
2021/12/25 00:16:10;;;;;;;14.27;11.83;;;14.30;66.10;;;;;;5093669;28;20571;-58
2021/12/25 00:18:38;;;;;;;11.53;8.70;;;14.20;66.00;;;;;;5093401;28;20231;-56
2021/12/25 00:21:04;;;;;;;12.03;9.40;;;14.20;66.20;;;;;;5092074;28;20441;-57
2021/12/25 00:23:30;;;;;;;10.97;9.87;;;14.20;66.30;;;;;;5093704;28;20425;-57
2021/12/25 00:26:07;;;;;;;11.40;9.57;;;14.20;66.40;;;;;;5092949;28;20555;-56
2021/12/25 00:31:27;;;;;;;11.80;8.53;;;14.20;66.60;;;;;;5091459;28;20449;-58
2021/12/25 00:33:59;;;;;;;10.17;8.90;;;14.20;66.60;;;;;;5093760;28;20191;-56
2021/12/25 00:36:25;;;;;;;9.20;8.20;;;14.30;66.70;;;;;;5092822;28;20437;-56
2021/12/25 00:38:52;;;;;;;8.90;7.60;;;14.30;66.60;;;;;;5093201;28;20443;-57
2021/12/25 00:41:20;;;;;;;10.43;7.50;;;14.30;66.60;;;;;;5092777;28;20427;-57
2021/12/25 00:43:46;;;;;;;8.50;7.70;;;14.30;66.60;;;;;;5093305;28;20789;-57
2021/12/25 00:46:12;;;;;;;8.00;7.20;;;14.30;66.40;;;;;;5092528;28;20432;-57
2021/12/25 00:48:38;;;;;;;11.37;7.40;;;14.30;66.40;;;;;;5087489;28;20426;-56
2021/12/25 00:51:05;;;;;;;10.60;8.73;;;14.30;66.30;;;;;;5092937;28;20324;-58
2021/12/25 00:53:31;;;;;;;10.30;8.00;;;14.30;66.30;;;;;;5092970;28;20445;-57
2021/12/25 00:55:57;;;;;;;11.30;9.03;;;14.30;66.40;;;;;;5090800;28;20417;-56
2021/12/25 00:58:22;;;;;;;12.57;8.60;;;14.30;66.40;;;;;;5092889;28;20448;-56
2021/12/25 01:00:48;;;;;;;9.10;8.27;;;14.30;66.40;;;;;;5092590;28;20202;-57
2021/12/25 01:03:14;;;;;;;9.43;8.17;;;14.30;66.40;;;;;;5092949;28;20277;-56
2021/12/25 01:05:39;;;;;;;9.03;8.13;;;14.30;66.10;;;;;;5092665;28;20191;-56
2021/12/25 01:08:06;;;;;;;10.23;8.20;;;14.20;65.80;;;;;;5092557;28;20233;-55
2021/12/25 01:10:33;;;;;;;10.23;8.80;;;14.20;65.80;;;;;;5092171;28;20270;-57
2021/12/25 01:15:37;;;;;;;11.47;8.80;;;14.10;65.70;;;;;;5091933;28;20422;-57
2021/12/25 01:31:54;;;;;;;11.23;9.00;;;14.00;66.70;;;;;;5091127;28;20528;-57
2021/12/25 01:37:26;;;;;;;10.47;8.50;;;14.00;66.70;;;;;;5073812;28;20453;-57
2021/12/25 01:40:17;;;;;;;9.67;8.70;;;14.10;66.80;;;;;;5091575;28;20429;-58
2021/12/25 01:48:18;;;;;;;10.90;9.80;;;14.00;67.00;;;;;;5086444;28;20480;-57
2021/12/25 01:50:44;;;;;;;11.60;9.50;;;14.00;66.90;;;;;;5089951;28;20429;-57
2021/12/25 01:53:10;;;;;;;12.03;9.10;;;13.90;66.90;;;;;;5092283;28;20432;-57
2021/12/25 01:55:36;;;;;;;11.43;10.20;;;13.90;67.20;;;;;;5091275;28;20194;-57
2021/12/25 01:58:04;;;;;;;11.17;10.00;;;13.90;67.40;;;;;;5091888;28;20426;-57
2021/12/25 02:00:32;;;;;;;10.70;9.60;;;13.90;67.30;;;;;;5091236;28;20897;-58
2021/12/25 02:02:58;;;;;;;10.77;9.40;;;13.90;67.20;;;;;;5091698;28;20425;-57
2021/12/25 02:05:23;;;;;;;11.83;10.63;;;13.90;67.70;;;;;;5091442;28;20795;-58
2021/12/25 02:07:49;;;;;;;11.03;9.10;;;13.90;67.80;;;;;;5091537;28;20214;-58
2021/12/25 02:10:18;;;;;;;12.90;10.10;;;13.80;67.70;;;;;;5091194;28;20184;-57
2021/12/25 02:12:45;;;;;;;9.23;8.43;;;13.80;67.80;;;;;;5091800;28;20191;-58
2021/12/25 02:15:15;;;;;;;10.80;8.80;;;13.60;68.00;;;;;;5091112;28;20429;-57
2021/12/25 02:18:00;;;;;;;9.20;8.30;;;13.60;68.40;;;;;;5089742;28;20429;-56
2021/12/25 02:20:34;;;;;;;9.93;9.00;;;13.70;68.30;;;;;;5090853;28;20471;-56
2021/12/25 02:23:03;;;;;;;10.30;9.20;;;13.60;68.10;;;;;;5091334;28;20429;-56
2021/12/25 02:25:32;;;;;;;11.37;10.17;;;13.50;68.80;;;;;;5090890;28;20437;-56
2021/12/25 02:27:58;;;;;;;10.10;9.10;;;13.50;68.80;;;;;;5090829;28;20476;-57
2021/12/25 02:30:24;;;;;;;14.00;9.30;;;13.50;68.80;;;;;;5090754;28;20422;-57
2021/12/25 02:32:50;;;;;;;9.67;8.70;;;13.50;69.10;;;;;;5091293;28;20456;-57
2021/12/25 02:35:16;;;;;;;11.00;8.87;;;13.50;69.40;;;;;;5090616;28;20199;-59
2021/12/25 02:37:44;;;;;;;10.90;9.30;;;13.50;69.20;;;;;;5090998;28;20226;-59
2021/12/25 02:40:11;;;;;;;11.70;9.13;;;13.70;69.00;;;;;;5090568;28;21262;-58
2021/12/25 02:42:37;;;;;;;9.83;8.80;;;13.70;68.60;;;;;;5089292;28;20932;-58
2021/12/25 02:45:05;;;;;;;12.00;10.10;;;13.70;68.40;;;;;;5090753;28;20429;-57
2021/12/25 02:47:31;;;;;;;10.53;9.43;;;13.80;68.40;;;;;;5084186;28;20478;-57
2021/12/25 02:49:57;;;;;;;13.30;10.70;;;13.80;68.30;;;;;;5090521;28;20474;-58
2021/12/25 02:52:23;;;;;;;11.67;9.10;;;13.80;68.60;;;;;;5089461;28;20866;-58
2021/12/25 02:54:49;;;;;;;11.30;8.60;;;13.70;70.00;;;;;;5090825;28;20193;-57
2021/12/25 02:57:15;;;;;;;9.70;8.30;;;13.70;69.10;;;;;;5090400;28;20421;-58
2021/12/25 02:59:41;;;;;;;10.47;9.27;;;13.70;69.10;;;;;;5091024;28;20205;-58
2021/12/25 03:02:10;;;;;;;9.90;8.90;;;13.80;69.10;;;;;;5090380;28;20448;-58
2021/12/25 03:04:41;;;;;;;10.13;9.13;;;13.80;68.90;;;;;;5091095;28;20203;-58
2021/12/25 03:07:08;;;;;;;10.77;8.97;;;13.70;68.60;;;;;;5090066;28;20473;-58
2021/12/25 03:09:34;;;;;;;13.73;9.40;;;13.70;68.80;;;;;;5089066;28;20426;-57
2021/12/25 03:12:02;;;;;;;10.07;8.83;;;13.70;69.10;;;;;;5090394;28;20504;-57
2021/12/25 03:15:13;;;;;;;9.97;8.77;;;13.60;69.00;;;;;;5090900;28;20556;-57
2021/12/25 03:17:39;;;;;;;9.77;8.40;;;13.50;69.60;;;;;;5090727;28;20429;-57
2021/12/25 03:20:07;;;;;;;10.87;9.00;;;13.10;70.60;;;;;;5089891;28;20463;-57
2021/12/25 03:22:33;;;;;;;9.07;7.70;;;13.10;71.50;;;;;;5090972;28;20191;-57
2021/12/25 03:24:58;;;;;;;10.57;8.60;;;13.10;71.60;;;;;;5090279;28;20418;-57
2021/12/25 03:27:24;;;;;;;9.07;8.17;;;13.30;71.30;;;;;;5090118;28;20245;-56
2021/12/25 03:29:50;;;;;;;9.70;7.97;;;13.30;71.20;;;;;;5090573;28;20198;-56
2021/12/25 03:32:16;;;;;;;8.40;7.50;;;13.40;70.90;;;;;;5090853;28;20674;-59
2021/12/25 03:34:42;;;;;;;9.40;7.63;;;13.50;70.60;;;;;;5091000;28;20282;-56
2021/12/25 03:37:07;;;;;;;11.00;8.40;;;13.50;70.10;;;;;;5087910;28;20235;-56
2021/12/25 03:39:33;;;;;;;13.07;9.10;;;13.40;70.30;;;;;;5090701;28;20448;-56
2021/12/25 03:41:59;;;;;;;10.77;8.70;;;13.10;70.80;;;;;;5090175;28;20274;-56
2021/12/25 03:44:25;;;;;;;10.33;8.97;;;12.90;71.70;;;;;;5090598;28;20187;-57
2021/12/25 03:46:53;;;;;;;11.37;10.20;;;13.10;71.80;;;;;;5087285;28;20237;-57
2021/12/25 03:53:09;;;;;;;9.77;8.80;;;13.10;71.60;;;;;;5088442;28;20943;-57
2021/12/25 03:57:49;;;;;;;9.40;8.40;;;13.40;71.00;;;;;;5090406;28;20530;-57
2021/12/25 04:00:16;;;;;;;9.67;8.67;;;13.50;70.80;;;;;;5093539;28;20926;-56
2021/12/25 04:02:53;;;;;;;9.10;7.97;;;13.50;70.30;;;;;;5092693;28;20429;-57
2021/12/25 04:05:25;;;;;;;8.60;7.23;;;13.60;70.00;;;;;;5093463;28;20497;-55
2021/12/25 04:08:30;;;;;;;8.53;7.63;;;13.70;69.80;;;;;;5093520;28;20476;-56
2021/12/25 04:10:45;;;;;;;9.20;8.23;;;13.70;69.60;;;;;;5091197;28;20435;-55
2021/12/25 04:13:14;;;;;;;8.27;7.47;;;13.80;69.40;;;;;;5093917;28;20924;-55
2021/12/25 04:15:41;;;;;;;8.20;7.40;;;13.80;69.20;;;;;;5093205;28;20904;-56
2021/12/25 04:18:07;;;;;;;8.23;7.43;;;13.90;69.20;;;;;;5093229;28;20468;-58
2021/12/25 04:20:34;;;;;;;8.47;7.67;;;13.90;69.00;;;;;;5093427;28;20459;-58
2021/12/25 04:23:07;;;;;;;9.73;6.53;;;13.80;68.80;;;;;;5093760;28;20449;-56
2021/12/25 04:25:34;;;;;;;7.87;7.07;;;13.90;68.80;;;;;;5093125;28;20437;-58
2021/12/25 04:28:09;;;;;;;8.23;7.00;;;13.90;68.70;;;;;;5092924;28;20502;-58
2021/12/25 04:30:59;;;;;;;8.90;7.03;;;13.90;68.50;;;;;;5091446;28;20433;-57
2021/12/25 05:01:45;;;;;;;6.10;5.30;;;13.90;68.60;;;;;;5092888;28;20790;-57
2021/12/25 05:06:15;;;;;;;7.77;5.00;;;13.90;68.80;;;;;;5049584;28;20467;-56
2021/12/25 05:08:41;;;;;;;6.30;5.70;;;13.70;68.80;;;;;;5050054;28;20525;-57
2021/12/25 05:11:06;;;;;;;7.00;6.30;;;13.70;69.00;;;;;;5066637;28;20214;-56
2021/12/25 05:13:32;;;;;;;6.20;5.60;;;13.70;68.90;;;;;;5088982;28;20581;-56
2021/12/25 05:15:58;;;;;;;6.80;6.20;;;13.70;68.90;;;;;;5091964;28;20187;-57
2021/12/25 05:18:24;;;;;;;5.90;5.23;;;13.70;68.60;;;;;;5092123;28;20243;-56
2021/12/25 05:20:50;;;;;;;6.33;4.53;;;13.70;68.50;;;;;;5092149;28;20930;-56
2021/12/25 05:23:16;;;;;;;5.57;4.70;;;13.70;68.40;;;;;;5091303;28;20230;-56
2021/12/25 05:25:41;;;;;;;5.73;4.53;;;13.70;69.00;;;;;;5092011;28;20215;-56
2021/12/25 05:28:07;;;;;;;5.20;4.70;;;13.60;69.20;;;;;;5092047;28;20624;-56
2021/12/25 05:30:33;;;;;;;6.20;4.80;;;13.60;69.00;;;;;;5091984;28;20195;-56
2021/12/25 05:32:58;;;;;;;6.40;5.77;;;13.50;68.80;;;;;;5092392;28;20191;-56
2021/12/25 05:35:24;;;;;;;7.47;6.70;;;13.60;69.20;;;;;;5091746;28;20558;-56
2021/12/25 05:37:56;;;;;;;6.23;5.63;;;13.60;69.10;;;;;;5092031;28;20191;-55
2021/12/25 05:40:23;;;;;;;5.40;4.50;;;13.70;68.70;;;;;;5092056;28;20199;-55
2021/12/25 05:42:49;;;;;;;4.40;4.10;;;13.70;68.70;;;;;;5091996;28;20468;-55
2021/12/25 05:45:15;;;;;;;4.70;4.30;;;13.70;68.80;;;;;;5091855;28;20928;-56
2021/12/25 05:47:40;;;;;;;4.77;4.27;;;13.60;68.70;;;;;;5086134;28;20219;-55
2021/12/25 05:50:07;;;;;;;4.60;4.20;;;13.60;68.70;;;;;;5089967;28;20249;-56
2021/12/25 05:52:32;;;;;;;4.23;3.80;;;13.60;68.80;;;;;;5091766;28;20191;-56
2021/12/25 05:54:58;;;;;;;7.20;4.23;;;13.60;68.90;;;;;;5091535;28;20428;-55
2021/12/25 05:57:23;;;;;;;4.43;4.03;;;13.70;68.70;;;;;;5091653;28;20187;-55
2021/12/25 05:59:52;;;;;;;5.43;4.40;;;13.70;68.30;;;;;;5091723;28;20270;-55
2021/12/25 06:02:18;;;;;;;5.57;5.07;;;13.70;68.40;;;;;;5091677;28;20391;-56
2021/12/25 06:04:43;;;;;;;6.60;5.03;;;13.50;69.10;;;;;;5091963;28;20524;-56
2021/12/25 06:07:09;;;;;;;5.43;4.93;;;13.10;70.00;;;;;;5090876;28;20218;-55
2021/12/25 06:09:35;;;;;;;5.70;5.20;;;12.80;71.30;;;;;;5091984;28;20187;-54
2021/12/25 06:12:01;;;;;;;5.17;4.67;;;12.70;72.10;;;;;;5090822;28;20214;-55
2021/12/25 06:14:26;;;;;;;5.33;4.17;;;12.60;72.70;;;;;;5091644;28;20191;-55
2021/12/25 06:16:52;;;;;;;4.53;4.10;;;12.70;72.90;;;;;;5089244;28;20429;-53
2021/12/25 06:19:18;;;;;;;5.10;4.60;;;12.70;72.80;;;;;;5091515;28;20239;-55
2021/12/25 06:21:44;;;;;;;5.20;4.70;;;12.90;72.30;;;;;;5090899;28;20549;-55
2021/12/25 06:24:10;;;;;;;4.67;4.20;;;12.90;72.60;;;;;;5091645;28;20207;-55
2021/12/25 06:26:38;;;;;;;6.60;4.20;;;12.80;72.30;;;;;;5090319;28;20433;-55
2021/12/25 06:29:04;;;;;;;3.97;3.57;;;12.90;72.20;;;;;;5091117;28;20421;-54
2021/12/25 06:31:30;;;;;;;3.47;3.17;;;12.90;72.50;;;;;;5090699;28;21161;-55
2021/12/25 06:33:57;;;;;;;5.50;5.00;;;13.00;72.40;;;;;;5091351;28;20524;-55
2021/12/25 06:36:23;;;;;;;5.07;4.50;;;13.10;72.00;;;;;;5090902;28;20198;-56
2021/12/25 06:38:48;;;;;;;7.13;4.63;;;13.00;72.00;;;;;;5090947;28;20433;-56
2021/12/25 06:41:14;;;;;;;5.67;5.13;;;13.10;71.40;;;;;;5090774;28;20429;-53
2021/12/25 06:43:41;;;;;;;4.70;4.10;;;13.30;71.10;;;;;;5090011;28;20221;-56
2021/12/25 06:46:07;;;;;;;5.50;4.73;;;13.30;70.80;;;;;;5090575;28;20199;-56
2021/12/25 06:48:33;;;;;;;5.87;4.20;;;13.30;70.60;;;;;;5084920;28;21263;-54
2021/12/25 06:50:59;;;;;;;6.30;4.70;;;13.50;70.50;;;;;;5090574;28;20422;-55
2021/12/25 06:53:24;;;;;;;5.70;4.73;;;13.60;70.10;;;;;;5091081;28;20262;-56
2021/12/25 06:55:50;;;;;;;5.00;4.47;;;13.70;69.50;;;;;;5090228;28;20256;-56
2021/12/25 06:58:16;;;;;;;6.00;5.10;;;13.70;69.30;;;;;;5090683;28;20219;-55
2021/12/25 07:00:42;;;;;;;6.33;5.07;;;13.70;69.20;;;;;;5090643;28;20229;-55
2021/12/25 07:03:08;;;;;;;5.77;4.90;;;13.60;69.20;;;;;;5091247;28;20449;-56
2021/12/25 07:05:33;;;;;;;7.53;5.37;;;13.70;69.10;;;;;;5090451;28;20191;-55
2021/12/25 07:07:59;;;;;;;6.70;5.40;;;13.80;68.90;;;;;;5090319;28;20636;-55
2021/12/25 07:10:24;;;;;;;7.33;5.43;;;13.80;68.90;;;;;;5088718;28;20658;-53
2021/12/25 07:12:53;;;;;;;6.00;5.40;;;13.80;68.70;;;;;;5091086;28;20215;-55
2021/12/25 07:15:19;;;;;;;6.00;5.40;;;13.90;68.70;;;;;;5090336;28;20199;-56
2021/12/25 07:17:45;;;;;;;5.87;4.83;;;13.90;68.40;;;;;;5090770;28;20490;-55
2021/12/25 07:20:12;;;;;;;6.63;5.40;;;13.90;68.30;;;;;;5090028;28;20472;-52
2021/12/25 07:22:38;;;;;;;6.97;5.80;;;14.00;68.00;;;;;;5090975;28;20457;-54
2021/12/25 07:25:06;;;;;;;5.50;4.90;;;14.10;67.90;;;;;;5090285;28;20480;-56
2021/12/25 07:27:31;;;;;;;8.47;5.93;;;14.10;67.70;;;;;;5090539;28;20317;-56
2021/12/25 07:29:57;;;;;;;7.30;6.20;;;14.10;67.30;;;;;;5090032;28;20864;-56
2021/12/25 07:32:23;;;;;;;9.00;8.10;;;14.20;67.50;;;;;;5091079;28;20187;-53
2021/12/25 07:34:50;;;;;;;6.93;6.17;;;14.20;67.50;;;;;;5093346;28;20182;-54
2021/12/25 07:37:16;;;;;;;7.97;6.20;;;14.20;67.50;;;;;;5092400;28;20192;-55
2021/12/25 07:39:43;;;;;;;5.77;5.10;;;14.20;67.70;;;;;;5094756;28;20429;-56
2021/12/25 07:42:09;;;;;;;6.60;5.20;;;14.20;67.80;;;;;;5094142;28;20507;-53
2021/12/25 07:44:35;;;;;;;4.87;4.47;;;14.10;68.10;;;;;;5094431;28;20490;-56
2021/12/25 07:47:02;;;;;;;5.60;4.43;;;14.10;68.70;;;;;;5089680;28;20961;-55
2021/12/25 07:49:28;;;;;;;5.17;4.40;;;14.00;69.00;;;;;;5092854;28;20248;-55
2021/12/25 07:51:53;;;;;;;6.20;5.60;;;13.90;69.40;;;;;;5093937;28;20437;-54
2021/12/25 07:54:19;;;;;;;6.70;5.37;;;14.00;69.30;;;;;;5094533;28;20195;-56
2021/12/25 07:56:45;;;;;;;5.50;5.00;;;14.10;68.80;;;;;;5093283;28;20696;-55
2021/12/25 07:59:11;;;;;;;8.13;6.03;;;14.10;68.50;;;;;;5094288;28;20195;-53
2021/12/25 08:01:37;;;;;;;7.60;6.77;;;14.10;68.60;;;;;;5093709;28;20242;-53
2021/12/25 08:04:04;;;;;;;8.73;5.97;;;14.10;68.60;;;;;;5092364;28;20525;-56
2021/12/25 08:06:30;;;;;;;5.83;5.23;;;14.10;68.80;;;;;;5093201;28;20428;-55
2021/12/25 08:09:00;;;;;;;7.13;5.37;;;14.20;68.80;;;;;;5093925;28;20429;-56
2021/12/25 08:11:26;;;;;;;5.90;5.07;;;14.20;68.80;;;;;;5093315;28;20928;-56
2021/12/25 08:13:53;;;;;;;5.67;5.20;;;14.20;68.90;;;;;;5094114;28;21278;-56
2021/12/25 08:16:19;;;;;;;5.57;5.07;;;14.20;69.00;;;;;;5092948;28;20418;-57
2021/12/25 08:18:44;;;;;;;6.60;5.77;;;14.20;69.00;;;;;;5093728;28;20618;-55
2021/12/25 08:21:10;;;;;;;6.03;5.23;;;14.20;69.20;;;;;;5093440;28;20735;-56
2021/12/25 08:23:36;;;;;;;6.10;5.50;;;14.20;69.10;;;;;;5080170;28;20226;-56
2021/12/25 08:26:03;;;;;;;5.97;5.20;;;14.20;68.80;;;;;;5093290;28;20638;-57
2021/12/25 08:28:29;;;;;;;5.90;5.30;;;14.20;69.10;;;;;;5093106;28;20211;-55
2021/12/25 08:30:54;;;;;;;5.50;5.00;;;14.20;69.30;;;;;;5091798;28;20424;-55
2021/12/25 08:33:20;;;;;;;7.60;5.83;;;14.20;69.30;;;;;;5093619;28;20187;-56
2021/12/25 08:35:46;;;;;;;7.37;5.90;;;14.30;69.40;;;;;;5092890;28;20199;-56
2021/12/25 08:38:12;;;;;;;9.27;5.67;;;14.30;69.40;;;;;;5093127;28;20191;-56
2021/12/25 08:40:39;;;;;;;9.87;6.23;;;14.30;69.60;;;;;;5093135;28;20195;-57
2021/12/25 08:43:05;;;;;;;5.90;5.27;;;14.30;69.40;;;;;;5093349;28;20275;-56
2021/12/25 08:46:00;;;;;;;5.77;5.17;;;14.30;69.30;;;;;;5091420;28;20774;-56
2021/12/25 08:48:26;;;;;;;6.17;5.57;;;14.30;69.30;;;;;;5087086;28;20484;-56
2021/12/25 08:50:55;;;;;;;8.30;5.90;;;14.40;69.40;;;;;;5092968;28;20516;-56
2021/12/25 08:53:23;;;;;;;6.20;5.10;;;14.40;69.50;;;;;;5093496;28;20417;-58
2021/12/25 08:55:51;;;;;;;7.13;4.40;;;14.40;69.60;;;;;;5090728;28;20472;-56
2021/12/25 08:58:17;;;;;;;5.83;5.10;;;14.30;69.60;;;;;;5092904;28;20425;-56
2021/12/25 09:00:44;;;;;;;6.07;5.43;;;14.30;70.00;;;;;;5092557;28;20444;-56
2021/12/25 09:03:09;;;;;;;6.90;5.50;;;14.30;69.90;;;;;;5092909;28;20565;-56
2021/12/25 09:05:35;;;;;;;4.83;4.30;;;14.50;69.80;;;;;;5092115;28;20517;-56
2021/12/25 09:08:02;;;;;;;5.13;4.10;;;14.40;69.70;;;;;;5092531;28;20229;-56
2021/12/25 09:10:28;;;;;;;4.60;4.03;;;14.40;70.00;;;;;;5092145;28;20917;-56
2021/12/25 09:12:56;;;;;;;6.03;5.43;;;14.40;70.10;;;;;;5092865;28;20431;-57
2021/12/25 09:15:21;;;;;;;5.53;5.00;;;14.40;70.00;;;;;;5091981;28;20436;-56
2021/12/25 09:17:47;;;;;;;4.70;4.30;;;14.50;70.00;;;;;;5092398;28;20429;-56
2021/12/25 09:20:16;;;;;;;5.70;5.20;;;14.50;69.70;;;;;;5092205;28;20934;-56
2021/12/25 09:22:42;;;;;;;5.20;4.67;;;14.60;69.70;;;;;;5091218;28;20226;-57
2021/12/25 09:25:08;;;;;;;5.50;4.30;;;14.60;69.30;;;;;;5091986;28;20441;-56
2021/12/25 09:27:34;;;;;;;5.33;4.83;;;14.70;69.20;;;;;;5092365;28;20524;-57
2021/12/25 09:30:00;;;;;;;6.60;5.10;;;14.70;69.10;;;;;;5091943;28;20244;-56
2021/12/25 09:32:26;;;;;;;7.37;5.20;;;14.80;69.20;;;;;;5092493;28;20459;-56
2021/12/25 09:34:52;;;;;;;5.90;5.30;;;14.80;69.40;;;;;;5091538;28;20426;-56
2021/12/25 09:37:18;;;;;;;4.33;3.70;;;14.80;69.40;;;;;;5091850;28;20515;-58
2021/12/25 09:39:44;;;;;;;5.27;4.77;;;14.80;69.40;;;;;;5092257;28;20198;-57
2021/12/25 09:42:10;;;;;;;6.53;4.70;;;14.80;69.50;;;;;;5091863;28;20912;-55
2021/12/25 09:44:36;;;;;;;5.30;4.70;;;14.80;69.80;;;;;;5091980;28;20436;-57
2021/12/25 09:47:02;;;;;;;4.90;4.40;;;14.80;69.50;;;;;;5087505;28;20220;-55
2021/12/25 09:49:28;;;;;;;5.77;5.17;;;14.90;69.30;;;;;;5088684;28;20206;-56
2021/12/25 09:51:53;;;;;;;6.23;5.63;;;14.90;69.10;;;;;;5091819;28;20430;-57
2021/12/25 09:54:20;;;;;;;6.47;5.87;;;14.90;69.00;;;;;;5091842;28;20252;-56
2021/12/25 09:56:47;;;;;;;6.73;6.13;;;14.90;69.00;;;;;;5090765;28;20218;-56
2021/12/25 09:59:14;;;;;;;6.90;6.07;;;15.00;69.10;;;;;;5091961;28;20939;-56
2021/12/25 10:01:45;;;;;;;7.30;6.50;;;15.00;69.00;;;;;;5091326;28;20457;-56
2021/12/25 10:04:29;;;;;;;8.00;7.10;;;15.00;68.90;;;;;;5092044;28;20425;-56
2021/12/25 10:06:55;;;;;;;8.23;7.43;;;15.00;69.00;;;;;;5090839;28;20481;-55
2021/12/25 10:09:24;;;;;;;7.93;7.13;;;15.10;69.10;;;;;;5092095;28;20581;-56
2021/12/25 10:12:06;;;;;;;8.23;7.03;;;15.00;69.10;;;;;;5091034;28;20433;-55
2021/12/25 10:14:32;;;;;;;7.03;6.27;;;15.10;69.20;;;;;;5091777;28;20960;-57
2021/12/25 10:16:58;;;;;;;8.53;7.20;;;15.10;69.00;;;;;;5088915;28;20426;-57
2021/12/25 10:19:27;;;;;;;5.70;5.10;;;15.10;69.20;;;;;;5091768;28;20586;-56
2021/12/25 10:22:08;;;;;;;5.43;4.50;;;15.10;69.40;;;;;;5091005;28;20199;-57
2021/12/25 10:24:41;;;;;;;6.03;5.43;;;15.10;69.30;;;;;;5091615;28;20944;-57
2021/12/25 10:27:16;;;;;;;9.60;8.40;;;15.10;69.40;;;;;;5090379;28;21194;-57
2021/12/25 10:29:42;;;;;;;10.17;9.03;;;15.10;69.20;;;;;;5091348;28;20992;-56
2021/12/25 10:32:17;;;;;;;10.70;8.80;;;15.20;69.20;;;;;;5090553;28;20437;-56
2021/12/25 10:34:44;;;;;;;10.33;8.07;;;15.20;69.10;;;;;;5091262;28;20230;-57
2021/12/25 10:37:12;;;;;;;9.43;8.40;;;15.20;69.10;;;;;;5090490;28;20940;-55
2021/12/25 10:39:38;;;;;;;12.30;9.50;;;15.30;69.10;;;;;;5091471;28;20426;-57
2021/12/25 10:42:12;;;;;;;11.70;7.50;;;15.30;69.60;;;;;;5089043;28;20431;-56
2021/12/25 10:44:50;;;;;;;8.30;6.50;;;15.40;68.70;;;;;;5091362;28;20436;-56
2021/12/25 10:47:22;;;;;;;5.70;4.03;;;15.30;68.60;;;;;;5084999;28;20470;-56
2021/12/25 10:49:52;;;;;;;5.50;3.20;;;15.20;68.70;;;;;;5090956;28;20425;-57
2021/12/25 10:52:31;;;;;;;6.23;3.63;;;15.20;68.70;;;;;;5091125;28;20429;-56
2021/12/25 10:55:00;;;;;;;4.33;3.43;;;15.30;68.30;;;;;;5090516;28;20460;-56
2021/12/25 10:57:34;;;;;;;4.80;2.77;;;15.30;68.20;;;;;;5090620;28;20426;-57
2021/12/25 11:00:04;;;;;;;2.70;2.50;;;15.30;68.30;;;;;;5090591;28;20432;-57
2021/12/25 11:02:36;;;;;;;2.20;2.00;;;15.10;68.70;;;;;;5091062;28;20461;-56
2021/12/25 11:05:23;;;;;;;3.17;2.87;;;15.20;68.00;;;;;;5089467;28;20861;-56
2021/12/25 11:08:13;;;;;;;3.13;2.83;;;15.10;68.20;;;;;;5090402;28;21041;-57
2021/12/25 11:10:48;;;;;;;3.20;2.50;;;15.10;68.10;;;;;;5093076;28;20432;-56
2021/12/25 11:13:27;;;;;;;2.47;2.27;;;15.20;67.90;;;;;;5095256;28;20433;-55
2021/12/25 11:16:04;;;;;;;3.77;2.97;;;15.10;67.90;;;;;;5094599;28;20532;-56
2021/12/25 11:19:06;;;;;;;2.40;2.20;;;15.10;68.00;;;;;;5094627;28;20486;-56
2021/12/25 11:21:54;;;;;;;2.33;1.97;;;15.20;67.70;;;;;;5094307;28;20662;-56
2021/12/25 11:24:26;;;;;;;2.37;2.17;;;15.20;67.60;;;;;;5094600;28;20925;-56
2021/12/25 11:26:54;;;;;;;3.07;1.77;;;15.20;67.40;;;;;;5093487;28;20437;-56
2021/12/25 11:29:23;;;;;;;3.93;1.70;;;15.30;67.40;;;;;;5094983;28;20421;-56
2021/12/25 11:31:50;;;;;;;2.23;2.00;;;15.30;67.10;;;;;;5094232;28;20453;-56
2021/12/25 11:34:16;;;;;;;2.40;2.20;;;15.30;67.00;;;;;;5094824;28;20418;-56
2021/12/25 11:36:48;;;;;;;2.27;1.77;;;15.40;66.90;;;;;;5092135;28;20437;-55
2021/12/25 11:39:16;;;;;;;2.43;2.23;;;15.40;67.30;;;;;;5094723;28;20423;-57
2021/12/25 11:41:43;;;;;;;2.60;1.93;;;15.40;66.90;;;;;;5094511;28;20429;-57
2021/12/25 11:44:29;;;;;;;2.80;2.43;;;15.40;66.60;;;;;;5094596;28;20425;-57
2021/12/25 11:46:55;;;;;;;2.47;2.27;;;15.40;67.00;;;;;;5090605;28;22437;-56
2021/12/25 11:49:21;;;;;;;2.43;2.07;;;15.30;67.00;;;;;;5091975;28;20474;-56
2021/12/25 11:51:47;;;;;;;2.00;1.80;;;15.40;66.70;;;;;;5094010;28;20429;-58
2021/12/25 11:59:45;;;;;;;1.90;1.80;;;15.40;67.20;;;;;;5094297;28;20468;-56
2021/12/25 12:02:12;;;;;;;2.80;2.10;;;15.50;66.30;;;;;;5092335;28;20433;-57
2021/12/25 12:04:40;;;;;;;2.80;2.53;;;15.50;66.40;;;;;;5093921;28;20441;-56
2021/12/25 12:07:13;;;;;;;3.30;2.13;;;15.60;66.40;;;;;;5093213;28;20473;-57
2021/12/25 12:09:44;;;;;;;3.33;2.57;;;15.60;66.50;;;;;;5094280;28;20787;-56
2021/12/25 12:12:15;;;;;;;3.00;2.70;;;15.60;66.10;;;;;;5093618;28;20425;-57
2021/12/25 12:14:40;;;;;;;2.70;2.50;;;15.50;66.30;;;;;;5094316;28;20842;-57
2021/12/25 12:17:18;;;;;;;2.50;2.30;;;15.50;66.50;;;;;;5092822;28;20455;-56
2021/12/25 12:19:46;;;;;;;3.20;2.90;;;15.50;66.70;;;;;;5093817;28;20555;-56
2021/12/25 12:25:42;;;;;;;2.60;2.40;;;15.50;66.70;;;;;;5093146;28;20437;-56
2021/12/25 12:28:08;;;;;;;2.50;2.30;;;15.50;66.60;;;;;;5093277;28;20576;-57
2021/12/25 12:30:34;;;;;;;2.50;2.30;;;15.40;66.50;;;;;;5091499;28;20916;-56
2021/12/25 12:33:02;;;;;;;2.80;2.50;;;15.50;66.40;;;;;;5093712;28;20479;-56
2021/12/25 12:35:33;;;;;;;2.80;2.60;;;15.50;66.30;;;;;;5092746;28;20626;-57
2021/12/25 12:38:40;;;;;;;3.83;2.67;;;15.60;66.20;;;;;;5093073;28;20767;-57
2021/12/25 12:41:13;;;;;;;4.10;2.37;;;15.60;66.10;;;;;;5093027;28;20446;-56
2021/12/25 12:43:59;;;;;;;2.50;2.30;;;15.60;65.90;;;;;;5093788;28;20461;-56
2021/12/25 12:46:45;;;;;;;2.80;2.50;;;15.60;65.90;;;;;;5092464;28;20759;-57
2021/12/25 12:49:11;;;;;;;2.57;2.37;;;15.60;65.90;;;;;;5088797;28;20465;-56
2021/12/25 12:51:37;;;;;;;3.10;2.30;;;15.60;65.90;;;;;;5092791;28;20457;-55
2021/12/25 12:54:04;;;;;;;2.93;2.63;;;15.60;65.80;;;;;;5093083;28;20190;-57
2021/12/25 12:56:30;;;;;;;3.27;2.83;;;15.60;65.80;;;;;;5090777;28;20659;-56
2021/12/25 12:58:57;;;;;;;4.20;3.40;;;15.50;65.60;;;;;;5093331;28;20512;-56
2021/12/25 13:01:27;;;;;;;4.17;3.60;;;15.50;65.70;;;;;;5092481;28;20740;-56
2021/12/25 13:03:59;;;;;;;3.00;2.73;;;15.50;65.60;;;;;;5092932;28;20429;-56
2021/12/25 13:06:27;;;;;;;3.60;3.30;;;15.50;65.80;;;;;;5092084;28;20436;-56
2021/12/25 13:08:53;;;;;;;4.17;3.10;;;15.50;65.90;;;;;;5093067;28;20575;-56
2021/12/25 13:11:30;;;;;;;3.00;2.63;;;15.50;65.60;;;;;;5092339;28;20453;-56
2021/12/25 13:14:00;;;;;;;3.40;3.00;;;15.50;65.80;;;;;;5092581;28;20453;-56
2021/12/25 13:16:52;;;;;;;3.27;2.97;;;15.50;65.90;;;;;;5092018;28;20425;-56
2021/12/25 13:19:18;;;;;;;3.47;3.17;;;15.50;66.50;;;;;;5092921;28;20488;-57
2021/12/25 13:21:44;;;;;;;5.37;4.30;;;15.50;66.00;;;;;;5091937;28;20908;-56
2021/12/25 13:24:14;;;;;;;4.57;4.17;;;15.50;66.10;;;;;;5091281;28;20218;-56
2021/12/25 13:26:47;;;;;;;3.80;3.50;;;15.50;66.10;;;;;;5091872;28;20188;-56
2021/12/25 13:29:23;;;;;;;4.10;3.80;;;15.40;66.10;;;;;;5092589;28;20441;-57
2021/12/25 13:31:49;;;;;;;4.33;3.87;;;15.40;66.10;;;;;;5091044;28;20413;-57
2021/12/25 13:34:18;;;;;;;5.20;3.17;;;15.40;66.20;;;;;;5092500;28;20433;-56
2021/12/25 13:36:50;;;;;;;3.80;3.47;;;15.40;66.40;;;;;;5091484;28;20433;-58
2021/12/25 13:39:18;;;;;;;4.43;3.73;;;15.40;66.50;;;;;;5092187;28;20425;-57
2021/12/25 13:41:46;;;;;;;6.00;4.70;;;15.40;66.50;;;;;;5091874;28;20425;-58
2021/12/25 13:44:23;;;;;;;4.20;3.70;;;15.40;66.60;;;;;;5092470;28;20436;-58
2021/12/25 13:46:59;;;;;;;4.93;3.90;;;15.40;67.60;;;;;;5089068;28;20436;-58
2021/12/25 13:49:34;;;;;;;4.53;4.17;;;15.30;67.00;;;;;;5088421;28;20429;-57
2021/12/25 13:52:07;;;;;;;4.43;4.03;;;15.30;67.10;;;;;;5091550;28;20436;-58
2021/12/25 13:54:34;;;;;;;4.37;3.97;;;15.30;67.20;;;;;;5092369;28;20475;-57
2021/12/25 13:57:00;;;;;;;4.87;4.07;;;15.30;67.10;;;;;;5090825;28;20429;-58
2021/12/25 13:59:27;;;;;;;6.23;4.00;;;15.40;67.10;;;;;;5092162;28;20512;-57
2021/12/25 14:02:13;;;;;;;4.30;3.90;;;15.40;67.00;;;;;;5091254;28;20465;-57
2021/12/25 14:04:41;;;;;;;4.80;3.90;;;15.40;67.00;;;;;;5092187;28;20766;-56